sensor_id;sensor_type;location;lat;lon;timestamp;P1;durP1;ratioP1;P2;durP2;ratioP2
7531;SDS011;3807;49.030;8.714;2023-03-21T00:01:21;6.43;;;4.97;;
7531;SDS011;3807;49.030;8.714;2023-03-21T00:03:47;7.87;;;4.63;;
7531;SDS011;3807;49.030;8.714;2023-03-21T00:06:13;8.57;;;5.07;;
7531;SDS011;3807;49.030;8.714;2023-03-21T00:08:39;7.57;;;4.77;;
7531;SDS011;3807;49.030;8.714;2023-03-21T00:11:06;8.33;;;5.50;;
7531;SDS011;3807;49.030;8.714;2023-03-21T00:13:33;7.33;;;5.20;;
7531;SDS011;3807;49.030;8.714;2023-03-21T00:16:06;8.53;;;5.00;;
7531;SDS011;3807;49.030;8.714;2023-03-21T00:18:34;7.37;;;5.40;;
7531;SDS011;3807;49.030;8.714;2023-03-21T00:21:04;8.87;;;4.83;;
7531;SDS011;3807;49.030;8.714;2023-03-21T00:23:30;7.80;;;4.70;;
7531;SDS011;3807;49.030;8.714;2023-03-21T00:25:57;7.17;;;5.23;;
7531;SDS011;3807;49.030;8.714;2023-03-21T00:28:23;8.23;;;4.83;;
7531;SDS011;3807;49.030;8.714;2023-03-21T00:30:49;6.47;;;4.60;;
7531;SDS011;3807;49.030;8.714;2023-03-21T00:33:15;7.57;;;5.10;;
7531;SDS011;3807;49.030;8.714;2023-03-21T00:35:44;9.17;;;5.00;;
7531;SDS011;3807;49.030;8.714;2023-03-21T00:38:12;6.40;;;4.73;;
7531;SDS011;3807;49.030;8.714;2023-03-21T00:40:38;10.00;;;4.60;;
7531;SDS011;3807;49.030;8.714;2023-03-21T00:43:03;8.37;;;4.33;;
7531;SDS011;3807;49.030;8.714;2023-03-21T00:45:28;8.40;;;5.20;;
7531;SDS011;3807;49.030;8.714;2023-03-21T00:47:54;7.43;;;5.27;;
7531;SDS011;3807;49.030;8.714;2023-03-21T00:50:19;6.93;;;5.10;;
7531;SDS011;3807;49.030;8.714;2023-03-21T00:52:45;9.97;;;4.73;;
7531;SDS011;3807;49.030;8.714;2023-03-21T00:55:14;7.10;;;4.80;;
7531;SDS011;3807;49.030;8.714;2023-03-21T00:57:41;7.10;;;5.17;;
7531;SDS011;3807;49.030;8.714;2023-03-21T01:00:08;6.83;;;4.77;;
7531;SDS011;3807;49.030;8.714;2023-03-21T01:02:36;10.30;;;4.83;;
7531;SDS011;3807;49.030;8.714;2023-03-21T01:05:02;7.27;;;4.50;;
7531;SDS011;3807;49.030;8.714;2023-03-21T01:07:30;8.57;;;4.73;;
7531;SDS011;3807;49.030;8.714;2023-03-21T01:09:55;7.93;;;4.27;;
7531;SDS011;3807;49.030;8.714;2023-03-21T01:12:21;6.17;;;4.43;;
7531;SDS011;3807;49.030;8.714;2023-03-21T01:14:46;9.97;;;4.43;;
7531;SDS011;3807;49.030;8.714;2023-03-21T01:17:11;7.87;;;4.03;;
7531;SDS011;3807;49.030;8.714;2023-03-21T01:19:37;6.87;;;4.37;;
7531;SDS011;3807;49.030;8.714;2023-03-21T01:22:02;6.00;;;4.50;;
7531;SDS011;3807;49.030;8.714;2023-03-21T01:24:28;7.43;;;4.13;;
7531;SDS011;3807;49.030;8.714;2023-03-21T01:26:53;7.67;;;4.37;;
7531;SDS011;3807;49.030;8.714;2023-03-21T01:29:19;6.23;;;4.30;;
7531;SDS011;3807;49.030;8.714;2023-03-21T01:31:45;8.00;;;4.60;;
7531;SDS011;3807;49.030;8.714;2023-03-21T01:34:10;6.13;;;4.20;;
7531;SDS011;3807;49.030;8.714;2023-03-21T01:36:35;5.97;;;4.23;;
7531;SDS011;3807;49.030;8.714;2023-03-21T01:39:01;7.87;;;4.37;;
7531;SDS011;3807;49.030;8.714;2023-03-21T01:41:31;7.07;;;4.00;;
7531;SDS011;3807;49.030;8.714;2023-03-21T01:43:59;6.87;;;5.00;;
7531;SDS011;3807;49.030;8.714;2023-03-21T01:49:02;6.93;;;4.37;;
7531;SDS011;3807;49.030;8.714;2023-03-21T01:51:34;7.53;;;4.77;;
7531;SDS011;3807;49.030;8.714;2023-03-21T01:54:03;7.20;;;4.40;;
7531;SDS011;3807;49.030;8.714;2023-03-21T01:56:32;6.57;;;4.90;;
7531;SDS011;3807;49.030;8.714;2023-03-21T01:59:04;7.03;;;4.63;;
7531;SDS011;3807;49.030;8.714;2023-03-21T02:01:35;7.93;;;4.40;;
7531;SDS011;3807;49.030;8.714;2023-03-21T02:04:02;8.00;;;4.40;;
7531;SDS011;3807;49.030;8.714;2023-03-21T02:07:14;6.80;;;4.50;;
7531;SDS011;3807;49.030;8.714;2023-03-21T02:09:21;7.07;;;4.60;;
7531;SDS011;3807;49.030;8.714;2023-03-21T02:11:50;6.90;;;4.27;;
7531;SDS011;3807;49.030;8.714;2023-03-21T02:14:17;6.97;;;4.00;;
7531;SDS011;3807;49.030;8.714;2023-03-21T02:16:46;5.60;;;4.13;;
7531;SDS011;3807;49.030;8.714;2023-03-21T02:27:33;6.13;;;3.70;;
7531;SDS011;3807;49.030;8.714;2023-03-21T02:33:10;5.73;;;4.13;;
7531;SDS011;3807;49.030;8.714;2023-03-21T02:38:58;5.33;;;3.83;;
7531;SDS011;3807;49.030;8.714;2023-03-21T02:49:34;5.50;;;3.27;;
7531;SDS011;3807;49.030;8.714;2023-03-21T02:52:34;4.83;;;3.37;;
7531;SDS011;3807;49.030;8.714;2023-03-21T02:55:02;7.10;;;3.53;;
7531;SDS011;3807;49.030;8.714;2023-03-21T02:57:30;5.90;;;3.43;;
7531;SDS011;3807;49.030;8.714;2023-03-21T02:59:57;6.13;;;3.23;;
7531;SDS011;3807;49.030;8.714;2023-03-21T03:02:25;7.83;;;3.80;;
7531;SDS011;3807;49.030;8.714;2023-03-21T03:04:52;5.50;;;4.03;;
7531;SDS011;3807;49.030;8.714;2023-03-21T03:10:20;6.70;;;4.30;;
7531;SDS011;3807;49.030;8.714;2023-03-21T03:16:18;6.67;;;3.57;;
7531;SDS011;3807;49.030;8.714;2023-03-21T03:21:16;9.50;;;4.47;;
7531;SDS011;3807;49.030;8.714;2023-03-21T03:23:51;7.00;;;4.07;;
7531;SDS011;3807;49.030;8.714;2023-03-21T03:26:25;6.60;;;4.10;;
7531;SDS011;3807;49.030;8.714;2023-03-21T03:28:57;8.37;;;4.30;;
7531;SDS011;3807;49.030;8.714;2023-03-21T03:31:27;6.73;;;4.10;;
7531;SDS011;3807;49.030;8.714;2023-03-21T03:33:58;5.87;;;4.33;;
7531;SDS011;3807;49.030;8.714;2023-03-21T03:36:31;12.50;;;9.00;;
7531;SDS011;3807;49.030;8.714;2023-03-21T03:39:03;10.23;;;7.77;;
7531;SDS011;3807;49.030;8.714;2023-03-21T03:41:33;11.20;;;5.00;;
7531;SDS011;3807;49.030;8.714;2023-03-21T03:44:18;7.43;;;6.30;;
7531;SDS011;3807;49.030;8.714;2023-03-21T03:46:51;9.37;;;7.30;;
7531;SDS011;3807;49.030;8.714;2023-03-21T03:49:23;6.40;;;4.90;;
7531;SDS011;3807;49.030;8.714;2023-03-21T03:52:14;6.83;;;4.47;;
7531;SDS011;3807;49.030;8.714;2023-03-21T03:54:45;7.00;;;4.60;;
7531;SDS011;3807;49.030;8.714;2023-03-21T03:57:13;13.90;;;7.13;;
7531;SDS011;3807;49.030;8.714;2023-03-21T03:59:40;7.67;;;5.53;;
7531;SDS011;3807;49.030;8.714;2023-03-21T04:02:07;9.13;;;5.23;;
7531;SDS011;3807;49.030;8.714;2023-03-21T04:04:33;8.20;;;4.43;;
7531;SDS011;3807;49.030;8.714;2023-03-21T04:06:59;6.90;;;4.40;;
7531;SDS011;3807;49.030;8.714;2023-03-21T04:09:25;7.20;;;4.70;;
7531;SDS011;3807;49.030;8.714;2023-03-21T04:11:54;7.67;;;4.67;;
7531;SDS011;3807;49.030;8.714;2023-03-21T04:14:19;9.83;;;4.83;;
7531;SDS011;3807;49.030;8.714;2023-03-21T04:16:45;5.30;;;4.50;;
7531;SDS011;3807;49.030;8.714;2023-03-21T04:19:11;7.40;;;4.70;;
7531;SDS011;3807;49.030;8.714;2023-03-21T04:21:36;5.83;;;4.23;;
7531;SDS011;3807;49.030;8.714;2023-03-21T04:24:02;4.50;;;3.70;;
7531;SDS011;3807;49.030;8.714;2023-03-21T04:26:27;6.63;;;4.13;;
7531;SDS011;3807;49.030;8.714;2023-03-21T04:28:57;8.03;;;4.43;;
7531;SDS011;3807;49.030;8.714;2023-03-21T04:31:27;7.33;;;4.33;;
7531;SDS011;3807;49.030;8.714;2023-03-21T04:33:58;6.13;;;4.30;;
7531;SDS011;3807;49.030;8.714;2023-03-21T04:36:25;9.93;;;3.90;;
7531;SDS011;3807;49.030;8.714;2023-03-21T04:39:02;6.37;;;4.33;;
7531;SDS011;3807;49.030;8.714;2023-03-21T04:41:30;7.00;;;4.10;;
7531;SDS011;3807;49.030;8.714;2023-03-21T04:43:56;7.17;;;4.13;;
7531;SDS011;3807;49.030;8.714;2023-03-21T04:46:21;9.17;;;4.70;;
7531;SDS011;3807;49.030;8.714;2023-03-21T04:48:47;5.20;;;4.03;;
7531;SDS011;3807;49.030;8.714;2023-03-21T04:51:14;5.60;;;4.03;;
7531;SDS011;3807;49.030;8.714;2023-03-21T04:53:40;5.53;;;3.77;;
7531;SDS011;3807;49.030;8.714;2023-03-21T04:56:09;4.73;;;3.90;;
7531;SDS011;3807;49.030;8.714;2023-03-21T04:58:35;5.97;;;4.20;;
7531;SDS011;3807;49.030;8.714;2023-03-21T05:01:00;8.27;;;4.43;;
7531;SDS011;3807;49.030;8.714;2023-03-21T05:03:26;6.67;;;3.93;;
7531;SDS011;3807;49.030;8.714;2023-03-21T05:05:53;6.50;;;4.13;;
7531;SDS011;3807;49.030;8.714;2023-03-21T05:08:19;7.13;;;4.10;;
7531;SDS011;3807;49.030;8.714;2023-03-21T05:10:45;4.97;;;3.80;;
7531;SDS011;3807;49.030;8.714;2023-03-21T05:13:10;4.50;;;3.67;;
7531;SDS011;3807;49.030;8.714;2023-03-21T05:15:35;7.90;;;4.80;;
7531;SDS011;3807;49.030;8.714;2023-03-21T05:18:01;8.77;;;4.60;;
7531;SDS011;3807;49.030;8.714;2023-03-21T05:20:35;9.87;;;4.60;;
7531;SDS011;3807;49.030;8.714;2023-03-21T05:23:07;6.27;;;4.33;;
7531;SDS011;3807;49.030;8.714;2023-03-21T05:25:35;5.57;;;3.60;;
7531;SDS011;3807;49.030;8.714;2023-03-21T05:28:02;7.13;;;3.97;;
7531;SDS011;3807;49.030;8.714;2023-03-21T05:30:28;5.67;;;3.80;;
7531;SDS011;3807;49.030;8.714;2023-03-21T05:32:54;5.17;;;3.70;;
7531;SDS011;3807;49.030;8.714;2023-03-21T05:35:19;6.07;;;3.60;;
7531;SDS011;3807;49.030;8.714;2023-03-21T05:37:44;4.90;;;3.70;;
7531;SDS011;3807;49.030;8.714;2023-03-21T05:40:10;4.10;;;3.30;;
7531;SDS011;3807;49.030;8.714;2023-03-21T05:42:36;6.73;;;3.60;;
7531;SDS011;3807;49.030;8.714;2023-03-21T05:45:01;6.17;;;4.30;;
7531;SDS011;3807;49.030;8.714;2023-03-21T05:47:27;4.37;;;3.43;;
7531;SDS011;3807;49.030;8.714;2023-03-21T05:49:52;6.47;;;3.70;;
7531;SDS011;3807;49.030;8.714;2023-03-21T05:52:18;7.93;;;3.40;;
7531;SDS011;3807;49.030;8.714;2023-03-21T05:54:43;8.90;;;3.37;;
7531;SDS011;3807;49.030;8.714;2023-03-21T05:57:09;4.53;;;3.27;;
7531;SDS011;3807;49.030;8.714;2023-03-21T05:59:34;3.97;;;3.53;;
7531;SDS011;3807;49.030;8.714;2023-03-21T06:02:00;7.63;;;3.83;;
7531;SDS011;3807;49.030;8.714;2023-03-21T06:04:25;6.90;;;3.77;;
7531;SDS011;3807;49.030;8.714;2023-03-21T06:06:51;10.37;;;4.40;;
7531;SDS011;3807;49.030;8.714;2023-03-21T06:09:17;6.73;;;3.30;;
7531;SDS011;3807;49.030;8.714;2023-03-21T06:11:47;5.70;;;3.87;;
7531;SDS011;3807;49.030;8.714;2023-03-21T06:14:15;5.57;;;3.67;;
7531;SDS011;3807;49.030;8.714;2023-03-21T06:16:40;5.67;;;3.50;;
7531;SDS011;3807;49.030;8.714;2023-03-21T06:19:06;4.77;;;3.47;;
7531;SDS011;3807;49.030;8.714;2023-03-21T06:21:31;5.67;;;3.53;;
7531;SDS011;3807;49.030;8.714;2023-03-21T06:23:57;4.93;;;3.50;;
7531;SDS011;3807;49.030;8.714;2023-03-21T06:26:22;4.90;;;3.37;;
7531;SDS011;3807;49.030;8.714;2023-03-21T06:28:48;6.97;;;3.70;;
7531;SDS011;3807;49.030;8.714;2023-03-21T06:31:14;5.50;;;4.10;;
7531;SDS011;3807;49.030;8.714;2023-03-21T06:33:40;8.40;;;3.70;;
7531;SDS011;3807;49.030;8.714;2023-03-21T06:36:05;18.80;;;7.23;;
7531;SDS011;3807;49.030;8.714;2023-03-21T06:38:31;17.90;;;8.40;;
7531;SDS011;3807;49.030;8.714;2023-03-21T06:40:56;16.57;;;7.77;;
7531;SDS011;3807;49.030;8.714;2023-03-21T06:43:22;11.33;;;5.00;;
7531;SDS011;3807;49.030;8.714;2023-03-21T06:45:47;8.67;;;4.70;;
7531;SDS011;3807;49.030;8.714;2023-03-21T06:48:13;5.23;;;3.80;;
7531;SDS011;3807;49.030;8.714;2023-03-21T06:50:38;6.93;;;3.83;;
7531;SDS011;3807;49.030;8.714;2023-03-21T06:53:04;8.00;;;4.13;;
7531;SDS011;3807;49.030;8.714;2023-03-21T06:55:29;4.80;;;3.50;;
7531;SDS011;3807;49.030;8.714;2023-03-21T06:57:55;6.47;;;4.20;;
7531;SDS011;3807;49.030;8.714;2023-03-21T07:00:21;4.50;;;3.17;;
7531;SDS011;3807;49.030;8.714;2023-03-21T07:02:47;9.13;;;4.47;;
7531;SDS011;3807;49.030;8.714;2023-03-21T07:05:13;6.37;;;3.80;;
7531;SDS011;3807;49.030;8.714;2023-03-21T07:07:40;10.00;;;4.03;;
7531;SDS011;3807;49.030;8.714;2023-03-21T07:10:06;6.80;;;3.87;;
7531;SDS011;3807;49.030;8.714;2023-03-21T07:12:32;8.70;;;4.23;;
7531;SDS011;3807;49.030;8.714;2023-03-21T07:14:58;12.90;;;3.77;;
7531;SDS011;3807;49.030;8.714;2023-03-21T07:17:27;12.47;;;4.03;;
7531;SDS011;3807;49.030;8.714;2023-03-21T07:19:52;6.77;;;2.97;;
7531;SDS011;3807;49.030;8.714;2023-03-21T07:22:18;5.33;;;3.13;;
7531;SDS011;3807;49.030;8.714;2023-03-21T07:24:43;8.00;;;3.80;;
7531;SDS011;3807;49.030;8.714;2023-03-21T07:27:12;4.07;;;3.20;;
7531;SDS011;3807;49.030;8.714;2023-03-21T07:29:41;11.43;;;3.30;;
7531;SDS011;3807;49.030;8.714;2023-03-21T07:32:07;5.10;;;3.20;;
7531;SDS011;3807;49.030;8.714;2023-03-21T07:34:34;10.50;;;3.73;;
7531;SDS011;3807;49.030;8.714;2023-03-21T07:36:59;7.70;;;3.27;;
7531;SDS011;3807;49.030;8.714;2023-03-21T07:39:25;9.70;;;3.10;;
7531;SDS011;3807;49.030;8.714;2023-03-21T07:41:51;4.20;;;2.90;;
7531;SDS011;3807;49.030;8.714;2023-03-21T07:44:19;5.00;;;2.93;;
7531;SDS011;3807;49.030;8.714;2023-03-21T07:46:45;7.27;;;3.20;;
7531;SDS011;3807;49.030;8.714;2023-03-21T07:49:10;3.93;;;2.77;;
7531;SDS011;3807;49.030;8.714;2023-03-21T07:51:36;5.93;;;2.60;;
7531;SDS011;3807;49.030;8.714;2023-03-21T07:54:01;3.93;;;2.40;;
7531;SDS011;3807;49.030;8.714;2023-03-21T07:56:27;4.73;;;2.43;;
7531;SDS011;3807;49.030;8.714;2023-03-21T07:58:52;3.63;;;2.27;;
7531;SDS011;3807;49.030;8.714;2023-03-21T08:01:18;3.43;;;2.27;;
7531;SDS011;3807;49.030;8.714;2023-03-21T08:03:43;4.40;;;2.47;;
7531;SDS011;3807;49.030;8.714;2023-03-21T08:06:09;3.03;;;2.53;;
7531;SDS011;3807;49.030;8.714;2023-03-21T08:08:35;6.60;;;2.57;;
7531;SDS011;3807;49.030;8.714;2023-03-21T08:11:02;2.97;;;2.50;;
7531;SDS011;3807;49.030;8.714;2023-03-21T08:13:27;5.60;;;2.50;;
7531;SDS011;3807;49.030;8.714;2023-03-21T08:15:53;3.47;;;2.43;;
7531;SDS011;3807;49.030;8.714;2023-03-21T08:18:18;5.00;;;2.07;;
7531;SDS011;3807;49.030;8.714;2023-03-21T08:20:43;4.07;;;2.13;;
7531;SDS011;3807;49.030;8.714;2023-03-21T08:23:09;2.80;;;2.37;;
7531;SDS011;3807;49.030;8.714;2023-03-21T08:25:34;8.73;;;2.07;;
7531;SDS011;3807;49.030;8.714;2023-03-21T08:28:00;4.73;;;2.50;;
7531;SDS011;3807;49.030;8.714;2023-03-21T08:30:25;2.97;;;2.07;;
7531;SDS011;3807;49.030;8.714;2023-03-21T08:32:57;2.50;;;2.30;;
7531;SDS011;3807;49.030;8.714;2023-03-21T08:35:23;4.67;;;2.07;;
7531;SDS011;3807;49.030;8.714;2023-03-21T08:37:49;4.23;;;2.20;;
7531;SDS011;3807;49.030;8.714;2023-03-21T08:40:16;5.60;;;2.00;;
7531;SDS011;3807;49.030;8.714;2023-03-21T08:42:42;2.77;;;2.00;;
7531;SDS011;3807;49.030;8.714;2023-03-21T08:45:09;4.33;;;2.20;;
7531;SDS011;3807;49.030;8.714;2023-03-21T08:47:36;5.07;;;2.17;;
7531;SDS011;3807;49.030;8.714;2023-03-21T08:50:02;4.73;;;2.10;;
7531;SDS011;3807;49.030;8.714;2023-03-21T08:52:30;4.37;;;2.40;;
7531;SDS011;3807;49.030;8.714;2023-03-21T08:54:55;3.77;;;2.30;;
7531;SDS011;3807;49.030;8.714;2023-03-21T08:57:21;2.93;;;2.13;;
7531;SDS011;3807;49.030;8.714;2023-03-21T08:59:46;4.30;;;2.40;;
7531;SDS011;3807;49.030;8.714;2023-03-21T09:02:12;3.03;;;2.13;;
7531;SDS011;3807;49.030;8.714;2023-03-21T09:04:38;5.33;;;2.40;;
7531;SDS011;3807;49.030;8.714;2023-03-21T09:07:04;5.47;;;2.60;;
7531;SDS011;3807;49.030;8.714;2023-03-21T09:09:30;5.03;;;2.30;;
7531;SDS011;3807;49.030;8.714;2023-03-21T09:11:56;5.57;;;2.30;;
7531;SDS011;3807;49.030;8.714;2023-03-21T09:14:21;6.57;;;2.20;;
7531;SDS011;3807;49.030;8.714;2023-03-21T09:16:46;5.27;;;2.80;;
7531;SDS011;3807;49.030;8.714;2023-03-21T09:19:12;4.23;;;2.00;;
7531;SDS011;3807;49.030;8.714;2023-03-21T09:21:37;3.77;;;2.30;;
7531;SDS011;3807;49.030;8.714;2023-03-21T09:24:03;3.93;;;1.90;;
7531;SDS011;3807;49.030;8.714;2023-03-21T09:26:30;3.10;;;2.00;;
7531;SDS011;3807;49.030;8.714;2023-03-21T09:28:56;3.33;;;2.00;;
7531;SDS011;3807;49.030;8.714;2023-03-21T09:31:22;2.83;;;1.77;;
7531;SDS011;3807;49.030;8.714;2023-03-21T09:33:49;4.90;;;2.27;;
7531;SDS011;3807;49.030;8.714;2023-03-21T09:36:15;4.13;;;2.10;;
7531;SDS011;3807;49.030;8.714;2023-03-21T09:38:45;3.57;;;2.40;;
7531;SDS011;3807;49.030;8.714;2023-03-21T09:44:09;4.10;;;2.20;;
7531;SDS011;3807;49.030;8.714;2023-03-21T09:49:58;3.40;;;1.90;;
7531;SDS011;3807;49.030;8.714;2023-03-21T09:54:56;3.67;;;2.30;;
7531;SDS011;3807;49.030;8.714;2023-03-21T09:57:39;3.03;;;2.37;;
7531;SDS011;3807;49.030;8.714;2023-03-21T10:00:11;5.13;;;1.90;;
7531;SDS011;3807;49.030;8.714;2023-03-21T10:02:48;4.40;;;2.13;;
7531;SDS011;3807;49.030;8.714;2023-03-21T10:05:22;3.80;;;2.20;;
7531;SDS011;3807;49.030;8.714;2023-03-21T10:07:50;4.13;;;2.13;;
7531;SDS011;3807;49.030;8.714;2023-03-21T10:10:26;5.50;;;2.47;;
7531;SDS011;3807;49.030;8.714;2023-03-21T10:12:53;3.57;;;2.33;;
7531;SDS011;3807;49.030;8.714;2023-03-21T10:15:21;5.33;;;2.30;;
7531;SDS011;3807;49.030;8.714;2023-03-21T10:18:10;3.03;;;1.70;;
7531;SDS011;3807;49.030;8.714;2023-03-21T10:20:38;3.93;;;2.03;;
7531;SDS011;3807;49.030;8.714;2023-03-21T10:23:09;3.23;;;2.20;;
7531;SDS011;3807;49.030;8.714;2023-03-21T10:25:39;2.93;;;2.00;;
7531;SDS011;3807;49.030;8.714;2023-03-21T10:28:11;4.70;;;2.40;;
7531;SDS011;3807;49.030;8.714;2023-03-21T10:30:48;4.83;;;2.00;;
7531;SDS011;3807;49.030;8.714;2023-03-21T10:33:18;2.87;;;1.93;;
7531;SDS011;3807;49.030;8.714;2023-03-21T10:36:01;2.73;;;2.00;;
7531;SDS011;3807;49.030;8.714;2023-03-21T10:38:30;2.77;;;2.00;;
7531;SDS011;3807;49.030;8.714;2023-03-21T10:40:56;3.60;;;1.77;;
7531;SDS011;3807;49.030;8.714;2023-03-21T10:45:50;6.27;;;2.47;;
7531;SDS011;3807;49.030;8.714;2023-03-21T10:48:16;4.33;;;2.70;;
7531;SDS011;3807;49.030;8.714;2023-03-21T10:50:41;3.67;;;2.20;;
7531;SDS011;3807;49.030;8.714;2023-03-21T10:53:21;4.87;;;2.50;;
7531;SDS011;3807;49.030;8.714;2023-03-21T10:55:55;3.67;;;2.50;;
7531;SDS011;3807;49.030;8.714;2023-03-21T10:58:26;4.80;;;2.33;;
7531;SDS011;3807;49.030;8.714;2023-03-21T11:00:58;5.40;;;2.10;;
7531;SDS011;3807;49.030;8.714;2023-03-21T11:03:30;3.07;;;2.00;;
7531;SDS011;3807;49.030;8.714;2023-03-21T11:06:22;5.60;;;2.27;;
7531;SDS011;3807;49.030;8.714;2023-03-21T11:08:55;2.90;;;2.30;;
7531;SDS011;3807;49.030;8.714;2023-03-21T11:11:48;3.10;;;2.40;;
7531;SDS011;3807;49.030;8.714;2023-03-21T11:14:32;2.83;;;2.17;;
7531;SDS011;3807;49.030;8.714;2023-03-21T11:17:01;4.80;;;2.27;;
7531;SDS011;3807;49.030;8.714;2023-03-21T11:22:15;2.63;;;2.00;;
7531;SDS011;3807;49.030;8.714;2023-03-21T11:24:44;5.40;;;2.27;;
7531;SDS011;3807;49.030;8.714;2023-03-21T11:27:15;3.30;;;2.37;;
7531;SDS011;3807;49.030;8.714;2023-03-21T11:29:50;3.50;;;2.07;;
7531;SDS011;3807;49.030;8.714;2023-03-21T11:32:20;3.60;;;2.50;;
7531;SDS011;3807;49.030;8.714;2023-03-21T11:34:53;3.63;;;2.40;;
7531;SDS011;3807;49.030;8.714;2023-03-21T11:40:18;7.43;;;2.40;;
7531;SDS011;3807;49.030;8.714;2023-03-21T11:42:44;4.20;;;2.13;;
7531;SDS011;3807;49.030;8.714;2023-03-21T11:45:17;4.47;;;2.20;;
7531;SDS011;3807;49.030;8.714;2023-03-21T11:47:48;3.60;;;2.53;;
7531;SDS011;3807;49.030;8.714;2023-03-21T11:50:16;4.20;;;2.30;;
7531;SDS011;3807;49.030;8.714;2023-03-21T11:52:49;4.90;;;2.17;;
7531;SDS011;3807;49.030;8.714;2023-03-21T11:58:07;2.73;;;1.90;;
7531;SDS011;3807;49.030;8.714;2023-03-21T12:00:51;3.47;;;2.03;;
7531;SDS011;3807;49.030;8.714;2023-03-21T12:03:33;8.33;;;2.30;;
7531;SDS011;3807;49.030;8.714;2023-03-21T12:06:16;13.70;;;2.10;;
7531;SDS011;3807;49.030;8.714;2023-03-21T12:14:42;3.50;;;2.10;;
7531;SDS011;3807;49.030;8.714;2023-03-21T12:17:19;3.90;;;1.80;;
7531;SDS011;3807;49.030;8.714;2023-03-21T12:25:53;5.87;;;2.20;;
7531;SDS011;3807;49.030;8.714;2023-03-21T12:28:38;3.17;;;2.17;;
7531;SDS011;3807;49.030;8.714;2023-03-21T12:39:39;4.10;;;2.10;;
7531;SDS011;3807;49.030;8.714;2023-03-21T12:44:44;2.93;;;2.03;;
7531;SDS011;3807;49.030;8.714;2023-03-21T12:47:14;3.33;;;2.00;;
7531;SDS011;3807;49.030;8.714;2023-03-21T12:49:50;2.77;;;2.20;;
7531;SDS011;3807;49.030;8.714;2023-03-21T12:57:35;2.80;;;2.00;;
7531;SDS011;3807;49.030;8.714;2023-03-21T13:00:21;6.57;;;2.37;;
7531;SDS011;3807;49.030;8.714;2023-03-21T13:02:52;4.17;;;2.20;;
7531;SDS011;3807;49.030;8.714;2023-03-21T13:05:28;2.17;;;1.80;;
7531;SDS011;3807;49.030;8.714;2023-03-21T13:08:01;5.90;;;2.70;;
7531;SDS011;3807;49.030;8.714;2023-03-21T13:10:28;3.27;;;2.10;;
7531;SDS011;3807;49.030;8.714;2023-03-21T13:23:44;2.20;;;1.70;;
7531;SDS011;3807;49.030;8.714;2023-03-21T13:26:30;5.00;;;2.10;;
7531;SDS011;3807;49.030;8.714;2023-03-21T13:28:57;4.63;;;2.13;;
7531;SDS011;3807;49.030;8.714;2023-03-21T13:31:26;4.80;;;2.20;;
7531;SDS011;3807;49.030;8.714;2023-03-21T13:33:53;3.17;;;1.70;;
7531;SDS011;3807;49.030;8.714;2023-03-21T13:36:23;6.93;;;1.90;;
7531;SDS011;3807;49.030;8.714;2023-03-21T13:38:53;5.57;;;2.00;;
7531;SDS011;3807;49.030;8.714;2023-03-21T13:41:30;8.60;;;1.83;;
7531;SDS011;3807;49.030;8.714;2023-03-21T13:59:17;3.10;;;2.00;;
7531;SDS011;3807;49.030;8.714;2023-03-21T14:02:16;2.80;;;2.07;;
7531;SDS011;3807;49.030;8.714;2023-03-21T14:04:46;2.80;;;2.23;;
7531;SDS011;3807;49.030;8.714;2023-03-21T14:07:18;3.47;;;2.00;;
7531;SDS011;3807;49.030;8.714;2023-03-21T14:09:48;3.00;;;1.80;;
7531;SDS011;3807;49.030;8.714;2023-03-21T14:12:17;3.97;;;1.60;;
7531;SDS011;3807;49.030;8.714;2023-03-21T14:14:51;2.77;;;1.43;;
7531;SDS011;3807;49.030;8.714;2023-03-21T14:17:26;2.37;;;1.50;;
7531;SDS011;3807;49.030;8.714;2023-03-21T14:19:53;3.07;;;1.90;;
7531;SDS011;3807;49.030;8.714;2023-03-21T14:22:21;3.10;;;1.57;;
7531;SDS011;3807;49.030;8.714;2023-03-21T14:24:57;3.67;;;1.70;;
7531;SDS011;3807;49.030;8.714;2023-03-21T14:27:24;3.50;;;1.60;;
7531;SDS011;3807;49.030;8.714;2023-03-21T14:29:54;2.60;;;1.70;;
7531;SDS011;3807;49.030;8.714;2023-03-21T14:32:21;3.60;;;1.83;;
7531;SDS011;3807;49.030;8.714;2023-03-21T14:34:49;3.20;;;1.73;;
7531;SDS011;3807;49.030;8.714;2023-03-21T14:40:23;2.30;;;1.70;;
7531;SDS011;3807;49.030;8.714;2023-03-21T14:42:51;2.83;;;1.80;;
7531;SDS011;3807;49.030;8.714;2023-03-21T14:45:24;2.70;;;1.60;;
7531;SDS011;3807;49.030;8.714;2023-03-21T14:47:54;3.13;;;1.83;;
7531;SDS011;3807;49.030;8.714;2023-03-21T14:50:23;1.97;;;1.60;;
7531;SDS011;3807;49.030;8.714;2023-03-21T14:52:55;2.00;;;1.60;;
7531;SDS011;3807;49.030;8.714;2023-03-21T14:55:22;3.60;;;1.77;;
7531;SDS011;3807;49.030;8.714;2023-03-21T14:57:48;1.57;;;1.33;;
7531;SDS011;3807;49.030;8.714;2023-03-21T15:00:17;3.63;;;1.30;;
7531;SDS011;3807;49.030;8.714;2023-03-21T15:02:48;2.10;;;1.40;;
7531;SDS011;3807;49.030;8.714;2023-03-21T15:05:15;1.70;;;1.23;;
7531;SDS011;3807;49.030;8.714;2023-03-21T15:07:50;1.43;;;1.13;;
7531;SDS011;3807;49.030;8.714;2023-03-21T15:10:18;2.00;;;1.23;;
7531;SDS011;3807;49.030;8.714;2023-03-21T15:12:56;5.97;;;1.40;;
7531;SDS011;3807;49.030;8.714;2023-03-21T15:15:25;2.43;;;1.33;;
7531;SDS011;3807;49.030;8.714;2023-03-21T15:17:52;2.53;;;1.40;;
7531;SDS011;3807;49.030;8.714;2023-03-21T15:20:21;2.93;;;1.30;;
7531;SDS011;3807;49.030;8.714;2023-03-21T15:22:51;1.80;;;1.20;;
7531;SDS011;3807;49.030;8.714;2023-03-21T15:25:21;3.20;;;1.17;;
7531;SDS011;3807;49.030;8.714;2023-03-21T15:27:51;4.27;;;1.60;;
7531;SDS011;3807;49.030;8.714;2023-03-21T15:30:24;2.47;;;1.30;;
7531;SDS011;3807;49.030;8.714;2023-03-21T15:32:52;2.30;;;1.43;;
7531;SDS011;3807;49.030;8.714;2023-03-21T15:35:24;2.13;;;1.30;;
7531;SDS011;3807;49.030;8.714;2023-03-21T15:37:55;1.40;;;1.20;;
7531;SDS011;3807;49.030;8.714;2023-03-21T15:40:26;5.50;;;1.37;;
7531;SDS011;3807;49.030;8.714;2023-03-21T15:45:49;1.80;;;1.20;;
7531;SDS011;3807;49.030;8.714;2023-03-21T15:48:20;1.97;;;1.40;;
7531;SDS011;3807;49.030;8.714;2023-03-21T15:51:10;2.30;;;1.30;;
7531;SDS011;3807;49.030;8.714;2023-03-21T15:53:46;2.80;;;1.30;;
7531;SDS011;3807;49.030;8.714;2023-03-21T15:56:12;1.67;;;1.17;;
7531;SDS011;3807;49.030;8.714;2023-03-21T15:58:43;2.37;;;1.43;;
7531;SDS011;3807;49.030;8.714;2023-03-21T16:01:13;1.70;;;1.00;;
7531;SDS011;3807;49.030;8.714;2023-03-21T16:03:43;2.67;;;1.53;;
7531;SDS011;3807;49.030;8.714;2023-03-21T16:08:41;3.00;;;1.50;;
7531;SDS011;3807;49.030;8.714;2023-03-21T16:11:17;1.30;;;1.20;;
7531;SDS011;3807;49.030;8.714;2023-03-21T16:13:48;1.40;;;1.10;;
7531;SDS011;3807;49.030;8.714;2023-03-21T16:16:19;4.57;;;1.47;;
7531;SDS011;3807;49.030;8.714;2023-03-21T16:18:46;3.27;;;1.00;;
7531;SDS011;3807;49.030;8.714;2023-03-21T16:21:12;1.80;;;1.20;;
7531;SDS011;3807;49.030;8.714;2023-03-21T16:23:40;2.23;;;1.10;;
7531;SDS011;3807;49.030;8.714;2023-03-21T16:26:06;2.40;;;1.23;;
7531;SDS011;3807;49.030;8.714;2023-03-21T16:28:35;1.50;;;1.10;;
7531;SDS011;3807;49.030;8.714;2023-03-21T16:31:01;1.40;;;1.10;;
7531;SDS011;3807;49.030;8.714;2023-03-21T16:33:26;2.77;;;1.47;;
7531;SDS011;3807;49.030;8.714;2023-03-21T16:35:52;1.87;;;1.30;;
7531;SDS011;3807;49.030;8.714;2023-03-21T16:38:21;1.87;;;1.30;;
7531;SDS011;3807;49.030;8.714;2023-03-21T16:40:47;8.13;;;5.07;;
7531;SDS011;3807;49.030;8.714;2023-03-21T16:43:13;2.07;;;1.57;;
7531;SDS011;3807;49.030;8.714;2023-03-21T16:45:38;2.10;;;1.50;;
7531;SDS011;3807;49.030;8.714;2023-03-21T16:48:03;2.83;;;1.83;;
7531;SDS011;3807;49.030;8.714;2023-03-21T16:50:34;2.93;;;1.57;;
7531;SDS011;3807;49.030;8.714;2023-03-21T16:53:20;2.60;;;1.63;;
7531;SDS011;3807;49.030;8.714;2023-03-21T16:55:45;3.40;;;1.90;;
7531;SDS011;3807;49.030;8.714;2023-03-21T16:58:12;2.00;;;1.50;;
7531;SDS011;3807;49.030;8.714;2023-03-21T17:00:39;2.17;;;1.30;;
7531;SDS011;3807;49.030;8.714;2023-03-21T17:03:11;2.70;;;1.33;;
7531;SDS011;3807;49.030;8.714;2023-03-21T17:05:39;1.70;;;1.30;;
7531;SDS011;3807;49.030;8.714;2023-03-21T17:08:05;2.90;;;1.20;;
7531;SDS011;3807;49.030;8.714;2023-03-21T17:10:31;5.03;;;1.77;;
7531;SDS011;3807;49.030;8.714;2023-03-21T17:12:57;2.40;;;1.30;;
7531;SDS011;3807;49.030;8.714;2023-03-21T17:15:22;3.87;;;1.37;;
7531;SDS011;3807;49.030;8.714;2023-03-21T17:17:48;2.27;;;1.20;;
7531;SDS011;3807;49.030;8.714;2023-03-21T17:22:45;1.50;;;1.40;;
7531;SDS011;3807;49.030;8.714;2023-03-21T17:25:11;3.33;;;1.50;;